sensor_id;sensor_type;location;lat;lon;timestamp;P1;durP1;ratioP1;P2;durP2;ratioP2
22287;SDS011;11312;51.464;6.968;2023-04-03T00:00:13;7.00;;;2.88;;
22287;SDS011;11312;51.464;6.968;2023-04-03T00:02:39;6.07;;;2.53;;
22287;SDS011;11312;51.464;6.968;2023-04-03T00:05:06;8.75;;;3.47;;
22287;SDS011;11312;51.464;6.968;2023-04-03T00:07:32;9.10;;;3.28;;
22287;SDS011;11312;51.464;6.968;2023-04-03T00:09:57;6.50;;;2.38;;
22287;SDS011;11312;51.464;6.968;2023-04-03T00:12:23;8.05;;;3.03;;
22287;SDS011;11312;51.464;6.968;2023-04-03T00:14:48;6.88;;;2.80;;
22287;SDS011;11312;51.464;6.968;2023-04-03T00:17:14;7.38;;;2.58;;
22287;SDS011;11312;51.464;6.968;2023-04-03T00:19:40;7.03;;;2.75;;
22287;SDS011;11312;51.464;6.968;2023-04-03T00:22:05;6.05;;;2.42;;
22287;SDS011;11312;51.464;6.968;2023-04-03T00:24:31;5.47;;;2.35;;
22287;SDS011;11312;51.464;6.968;2023-04-03T00:26:57;7.95;;;3.28;;
22287;SDS011;11312;51.464;6.968;2023-04-03T00:29:22;7.45;;;2.83;;
22287;SDS011;11312;51.464;6.968;2023-04-03T00:31:48;8.38;;;3.00;;
22287;SDS011;11312;51.464;6.968;2023-04-03T00:34:13;7.85;;;3.13;;
22287;SDS011;11312;51.464;6.968;2023-04-03T00:36:39;7.35;;;2.70;;
22287;SDS011;11312;51.464;6.968;2023-04-03T00:39:05;8.50;;;3.67;;
22287;SDS011;11312;51.464;6.968;2023-04-03T00:41:30;6.45;;;2.65;;
22287;SDS011;11312;51.464;6.968;2023-04-03T00:43:57;6.60;;;2.42;;
22287;SDS011;11312;51.464;6.968;2023-04-03T00:46:22;7.15;;;2.92;;
22287;SDS011;11312;51.464;6.968;2023-04-03T00:48:48;8.32;;;3.35;;
22287;SDS011;11312;51.464;6.968;2023-04-03T00:51:18;6.47;;;2.53;;
22287;SDS011;11312;51.464;6.968;2023-04-03T00:53:48;8.27;;;3.22;;
22287;SDS011;11312;51.464;6.968;2023-04-03T00:56:17;6.43;;;2.65;;
22287;SDS011;11312;51.464;6.968;2023-04-03T00:58:48;7.18;;;2.70;;
22287;SDS011;11312;51.464;6.968;2023-04-03T01:01:23;6.43;;;2.47;;
22287;SDS011;11312;51.464;6.968;2023-04-03T01:03:51;7.07;;;2.83;;
22287;SDS011;11312;51.464;6.968;2023-04-03T01:06:18;7.20;;;2.97;;
22287;SDS011;11312;51.464;6.968;2023-04-03T01:09:02;11.25;;;3.85;;
22287;SDS011;11312;51.464;6.968;2023-04-03T01:11:29;8.02;;;3.10;;
22287;SDS011;11312;51.464;6.968;2023-04-03T01:13:55;8.65;;;3.47;;
22287;SDS011;11312;51.464;6.968;2023-04-03T01:16:20;7.07;;;2.72;;
22287;SDS011;11312;51.464;6.968;2023-04-03T01:18:46;8.32;;;3.20;;
22287;SDS011;11312;51.464;6.968;2023-04-03T01:26:34;7.85;;;3.28;;
22287;SDS011;11312;51.464;6.968;2023-04-03T01:29:00;8.52;;;3.30;;
22287;SDS011;11312;51.464;6.968;2023-04-03T01:31:28;7.45;;;3.20;;
22287;SDS011;11312;51.464;6.968;2023-04-03T01:33:55;7.20;;;2.95;;
22287;SDS011;11312;51.464;6.968;2023-04-03T01:36:22;6.50;;;2.47;;
22287;SDS011;11312;51.464;6.968;2023-04-03T01:38:49;6.35;;;2.50;;
22287;SDS011;11312;51.464;6.968;2023-04-03T01:41:16;7.07;;;2.67;;
22287;SDS011;11312;51.464;6.968;2023-04-03T01:43:41;6.20;;;2.50;;
22287;SDS011;11312;51.464;6.968;2023-04-03T01:46:07;5.85;;;2.33;;
22287;SDS011;11312;51.464;6.968;2023-04-03T01:48:33;6.05;;;2.38;;
22287;SDS011;11312;51.464;6.968;2023-04-03T01:50:59;7.80;;;2.83;;
22287;SDS011;11312;51.464;6.968;2023-04-03T01:53:25;7.40;;;2.95;;
22287;SDS011;11312;51.464;6.968;2023-04-03T01:55:51;6.80;;;2.72;;
22287;SDS011;11312;51.464;6.968;2023-04-03T01:58:16;6.82;;;2.58;;
22287;SDS011;11312;51.464;6.968;2023-04-03T02:00:42;8.93;;;4.07;;
22287;SDS011;11312;51.464;6.968;2023-04-03T02:03:08;6.28;;;2.33;;
22287;SDS011;11312;51.464;6.968;2023-04-03T02:05:33;8.25;;;3.60;;
22287;SDS011;11312;51.464;6.968;2023-04-03T02:07:59;8.43;;;3.15;;
22287;SDS011;11312;51.464;6.968;2023-04-03T02:10:25;6.78;;;3.15;;
22287;SDS011;11312;51.464;6.968;2023-04-03T02:12:51;7.75;;;3.22;;
22287;SDS011;11312;51.464;6.968;2023-04-03T02:15:16;7.38;;;2.92;;
22287;SDS011;11312;51.464;6.968;2023-04-03T02:17:43;6.22;;;2.33;;
22287;SDS011;11312;51.464;6.968;2023-04-03T02:20:08;7.95;;;2.95;;
22287;SDS011;11312;51.464;6.968;2023-04-03T02:22:34;7.13;;;2.92;;
22287;SDS011;11312;51.464;6.968;2023-04-03T02:25:00;6.97;;;2.85;;
22287;SDS011;11312;51.464;6.968;2023-04-03T02:27:26;9.25;;;3.47;;
22287;SDS011;11312;51.464;6.968;2023-04-03T02:29:52;6.93;;;2.72;;
22287;SDS011;11312;51.464;6.968;2023-04-03T02:32:18;6.85;;;2.28;;
22287;SDS011;11312;51.464;6.968;2023-04-03T02:34:44;8.20;;;3.33;;
22287;SDS011;11312;51.464;6.968;2023-04-03T02:37:09;9.93;;;3.97;;
22287;SDS011;11312;51.464;6.968;2023-04-03T02:39:35;5.85;;;2.33;;
22287;SDS011;11312;51.464;6.968;2023-04-03T02:42:01;9.05;;;4.05;;
22287;SDS011;11312;51.464;6.968;2023-04-03T02:44:26;7.05;;;2.95;;
22287;SDS011;11312;51.464;6.968;2023-04-03T02:46:52;7.45;;;2.75;;
22287;SDS011;11312;51.464;6.968;2023-04-03T02:49:18;7.38;;;2.78;;
22287;SDS011;11312;51.464;6.968;2023-04-03T02:51:43;5.97;;;2.47;;
22287;SDS011;11312;51.464;6.968;2023-04-03T02:54:11;7.70;;;2.95;;
22287;SDS011;11312;51.464;6.968;2023-04-03T02:56:37;6.50;;;2.70;;
22287;SDS011;11312;51.464;6.968;2023-04-03T02:59:03;6.18;;;3.25;;
22287;SDS011;11312;51.464;6.968;2023-04-03T03:01:29;6.32;;;2.45;;
22287;SDS011;11312;51.464;6.968;2023-04-03T03:03:56;7.78;;;3.33;;
22287;SDS011;11312;51.464;6.968;2023-04-03T03:06:23;11.40;;;3.67;;
22287;SDS011;11312;51.464;6.968;2023-04-03T03:08:48;6.78;;;2.60;;
22287;SDS011;11312;51.464;6.968;2023-04-03T03:11:14;6.40;;;2.72;;
22287;SDS011;11312;51.464;6.968;2023-04-03T03:13:40;8.52;;;3.72;;
22287;SDS011;11312;51.464;6.968;2023-04-03T03:16:06;9.65;;;4.15;;
22287;SDS011;11312;51.464;6.968;2023-04-03T03:18:32;10.68;;;4.32;;
22287;SDS011;11312;51.464;6.968;2023-04-03T03:20:59;7.03;;;2.70;;
22287;SDS011;11312;51.464;6.968;2023-04-03T03:23:26;7.70;;;2.95;;
22287;SDS011;11312;51.464;6.968;2023-04-03T03:25:56;8.02;;;3.40;;
22287;SDS011;11312;51.464;6.968;2023-04-03T03:28:27;7.00;;;2.65;;
22287;SDS011;11312;51.464;6.968;2023-04-03T03:30:52;7.70;;;2.80;;
22287;SDS011;11312;51.464;6.968;2023-04-03T03:33:18;8.20;;;3.25;;
22287;SDS011;11312;51.464;6.968;2023-04-03T03:35:44;12.85;;;2.70;;
22287;SDS011;11312;51.464;6.968;2023-04-03T03:38:10;7.25;;;2.72;;
22287;SDS011;11312;51.464;6.968;2023-04-03T03:40:36;9.57;;;2.75;;
22287;SDS011;11312;51.464;6.968;2023-04-03T03:43:02;6.18;;;2.40;;
22287;SDS011;11312;51.464;6.968;2023-04-03T03:45:27;12.82;;;4.03;;
22287;SDS011;11312;51.464;6.968;2023-04-03T03:47:54;6.63;;;2.53;;
22287;SDS011;11312;51.464;6.968;2023-04-03T03:50:19;7.78;;;3.03;;
22287;SDS011;11312;51.464;6.968;2023-04-03T03:52:45;7.53;;;2.95;;
22287;SDS011;11312;51.464;6.968;2023-04-03T03:55:11;6.53;;;2.55;;
22287;SDS011;11312;51.464;6.968;2023-04-03T03:57:36;7.55;;;3.15;;
22287;SDS011;11312;51.464;6.968;2023-04-03T04:00:02;6.90;;;2.67;;
22287;SDS011;11312;51.464;6.968;2023-04-03T04:02:29;7.97;;;3.30;;
22287;SDS011;11312;51.464;6.968;2023-04-03T04:04:54;7.78;;;3.08;;
22287;SDS011;11312;51.464;6.968;2023-04-03T04:07:20;7.95;;;2.95;;
22287;SDS011;11312;51.464;6.968;2023-04-03T04:09:46;10.07;;;4.55;;
22287;SDS011;11312;51.464;6.968;2023-04-03T04:12:11;6.65;;;2.60;;
22287;SDS011;11312;51.464;6.968;2023-04-03T04:14:37;6.78;;;2.60;;
22287;SDS011;11312;51.464;6.968;2023-04-03T04:17:02;6.45;;;2.40;;
22287;SDS011;11312;51.464;6.968;2023-04-03T04:19:28;6.22;;;2.53;;
22287;SDS011;11312;51.464;6.968;2023-04-03T04:21:54;7.28;;;2.90;;
22287;SDS011;11312;51.464;6.968;2023-04-03T04:24:20;5.38;;;2.20;;
22287;SDS011;11312;51.464;6.968;2023-04-03T04:26:47;5.38;;;2.20;;
22287;SDS011;11312;51.464;6.968;2023-04-03T04:29:13;6.07;;;2.50;;
22287;SDS011;11312;51.464;6.968;2023-04-03T04:31:39;6.40;;;2.53;;
22287;SDS011;11312;51.464;6.968;2023-04-03T04:34:05;7.03;;;2.70;;
22287;SDS011;11312;51.464;6.968;2023-04-03T04:36:31;5.40;;;2.22;;
22287;SDS011;11312;51.464;6.968;2023-04-03T04:38:56;7.13;;;2.75;;
22287;SDS011;11312;51.464;6.968;2023-04-03T04:41:23;6.78;;;2.65;;
22287;SDS011;11312;51.464;6.968;2023-04-03T04:43:49;5.10;;;2.10;;
22287;SDS011;11312;51.464;6.968;2023-04-03T04:46:15;6.70;;;2.63;;
22287;SDS011;11312;51.464;6.968;2023-04-03T04:48:42;5.85;;;2.30;;
22287;SDS011;11312;51.464;6.968;2023-04-03T04:51:08;7.15;;;2.88;;
22287;SDS011;11312;51.464;6.968;2023-04-03T04:53:33;6.50;;;2.63;;
22287;SDS011;11312;51.464;6.968;2023-04-03T04:55:59;6.82;;;2.60;;
22287;SDS011;11312;51.464;6.968;2023-04-03T04:58:25;6.63;;;2.92;;
22287;SDS011;11312;51.464;6.968;2023-04-03T05:03:27;5.72;;;2.35;;
22287;SDS011;11312;51.464;6.968;2023-04-03T05:05:53;6.20;;;2.60;;
22287;SDS011;11312;51.464;6.968;2023-04-03T05:08:18;7.90;;;3.38;;
22287;SDS011;11312;51.464;6.968;2023-04-03T05:10:45;8.10;;;3.22;;
22287;SDS011;11312;51.464;6.968;2023-04-03T05:13:11;8.63;;;3.30;;
22287;SDS011;11312;51.464;6.968;2023-04-03T05:15:37;6.30;;;2.45;;
22287;SDS011;11312;51.464;6.968;2023-04-03T05:18:03;7.05;;;2.78;;
22287;SDS011;11312;51.464;6.968;2023-04-03T05:20:30;6.97;;;2.75;;
22287;SDS011;11312;51.464;6.968;2023-04-03T05:22:55;6.30;;;2.53;;
22287;SDS011;11312;51.464;6.968;2023-04-03T05:25:21;9.20;;;3.42;;
22287;SDS011;11312;51.464;6.968;2023-04-03T05:27:47;7.13;;;2.88;;
22287;SDS011;11312;51.464;6.968;2023-04-03T05:30:12;8.45;;;3.38;;
22287;SDS011;11312;51.464;6.968;2023-04-03T05:32:38;5.82;;;2.40;;
22287;SDS011;11312;51.464;6.968;2023-04-03T05:35:04;9.32;;;2.97;;
22287;SDS011;11312;51.464;6.968;2023-04-03T05:37:31;5.68;;;2.58;;
22287;SDS011;11312;51.464;6.968;2023-04-03T05:39:56;6.13;;;2.42;;
22287;SDS011;11312;51.464;6.968;2023-04-03T05:42:22;6.82;;;2.67;;
22287;SDS011;11312;51.464;6.968;2023-04-03T05:44:48;7.00;;;2.85;;
22287;SDS011;11312;51.464;6.968;2023-04-03T05:47:15;6.97;;;2.80;;
22287;SDS011;11312;51.464;6.968;2023-04-03T05:49:41;6.32;;;2.53;;
22287;SDS011;11312;51.464;6.968;2023-04-03T05:52:49;6.50;;;2.53;;
22287;SDS011;11312;51.464;6.968;2023-04-03T05:54:58;6.47;;;2.60;;
22287;SDS011;11312;51.464;6.968;2023-04-03T05:57:23;6.30;;;2.55;;
22287;SDS011;11312;51.464;6.968;2023-04-03T05:59:49;5.70;;;2.33;;
22287;SDS011;11312;51.464;6.968;2023-04-03T06:02:16;6.75;;;2.85;;
22287;SDS011;11312;51.464;6.968;2023-04-03T06:04:44;6.70;;;2.58;;
22287;SDS011;11312;51.464;6.968;2023-04-03T06:07:11;7.68;;;3.13;;
22287;SDS011;11312;51.464;6.968;2023-04-03T06:09:40;6.68;;;2.60;;
22287;SDS011;11312;51.464;6.968;2023-04-03T06:12:06;7.50;;;2.97;;
22287;SDS011;11312;51.464;6.968;2023-04-03T06:14:31;6.70;;;2.75;;
22287;SDS011;11312;51.464;6.968;2023-04-03T06:16:57;4.97;;;2.20;;
22287;SDS011;11312;51.464;6.968;2023-04-03T06:19:24;7.45;;;3.05;;
22287;SDS011;11312;51.464;6.968;2023-04-03T06:21:50;5.93;;;2.38;;
22287;SDS011;11312;51.464;6.968;2023-04-03T06:24:17;6.07;;;2.53;;
22287;SDS011;11312;51.464;6.968;2023-04-03T06:26:43;8.35;;;3.35;;
22287;SDS011;11312;51.464;6.968;2023-04-03T06:29:09;4.38;;;1.92;;
22287;SDS011;11312;51.464;6.968;2023-04-03T06:31:35;5.45;;;2.10;;
22287;SDS011;11312;51.464;6.968;2023-04-03T06:34:03;3.75;;;2.03;;
22287;SDS011;11312;51.464;6.968;2023-04-03T06:36:30;6.10;;;2.83;;
22287;SDS011;11312;51.464;6.968;2023-04-03T06:38:57;4.53;;;2.13;;
22287;SDS011;11312;51.464;6.968;2023-04-03T06:41:23;4.10;;;1.90;;
22287;SDS011;11312;51.464;6.968;2023-04-03T06:43:49;3.30;;;1.60;;
22287;SDS011;11312;51.464;6.968;2023-04-03T06:46:18;3.25;;;1.60;;
22287;SDS011;11312;51.464;6.968;2023-04-03T06:48:47;3.50;;;1.70;;
22287;SDS011;11312;51.464;6.968;2023-04-03T06:51:17;4.85;;;2.42;;
22287;SDS011;11312;51.464;6.968;2023-04-03T06:53:44;4.40;;;2.05;;
22287;SDS011;11312;51.464;6.968;2023-04-03T06:56:11;3.85;;;1.80;;
22287;SDS011;11312;51.464;6.968;2023-04-03T06:58:36;3.05;;;1.60;;
22287;SDS011;11312;51.464;6.968;2023-04-03T07:01:02;3.35;;;1.70;;
22287;SDS011;11312;51.464;6.968;2023-04-03T07:03:28;4.15;;;2.10;;
22287;SDS011;11312;51.464;6.968;2023-04-03T07:05:53;5.30;;;2.30;;
22287;SDS011;11312;51.464;6.968;2023-04-03T07:08:19;4.15;;;1.95;;
22287;SDS011;11312;51.464;6.968;2023-04-03T07:10:45;2.53;;;1.50;;
22287;SDS011;11312;51.464;6.968;2023-04-03T07:13:10;3.92;;;2.15;;
22287;SDS011;11312;51.464;6.968;2023-04-03T07:15:36;2.97;;;1.52;;
22287;SDS011;11312;51.464;6.968;2023-04-03T07:18:02;4.90;;;1.80;;
22287;SDS011;11312;51.464;6.968;2023-04-03T07:20:27;5.25;;;2.15;;
22287;SDS011;11312;51.464;6.968;2023-04-03T07:22:53;3.80;;;1.95;;
22287;SDS011;11312;51.464;6.968;2023-04-03T07:25:19;4.15;;;1.65;;
22287;SDS011;11312;51.464;6.968;2023-04-03T07:27:44;2.47;;;1.50;;
22287;SDS011;11312;51.464;6.968;2023-04-03T07:30:10;5.25;;;2.22;;
22287;SDS011;11312;51.464;6.968;2023-04-03T07:32:36;3.35;;;1.70;;
22287;SDS011;11312;51.464;6.968;2023-04-03T07:35:02;12.48;;;1.73;;
22287;SDS011;11312;51.464;6.968;2023-04-03T07:37:28;3.00;;;1.60;;
22287;SDS011;11312;51.464;6.968;2023-04-03T07:39:54;4.47;;;2.15;;
22287;SDS011;11312;51.464;6.968;2023-04-03T07:42:22;2.40;;;1.45;;
22287;SDS011;11312;51.464;6.968;2023-04-03T07:44:47;3.63;;;1.73;;
22287;SDS011;11312;51.464;6.968;2023-04-03T07:47:13;2.03;;;1.33;;
22287;SDS011;11312;51.464;6.968;2023-04-03T07:49:41;3.00;;;1.60;;
22287;SDS011;11312;51.464;6.968;2023-04-03T07:52:06;2.50;;;1.50;;
22287;SDS011;11312;51.464;6.968;2023-04-03T07:54:34;2.22;;;1.38;;
22287;SDS011;11312;51.464;6.968;2023-04-03T07:57:00;1.92;;;1.35;;
22287;SDS011;11312;51.464;6.968;2023-04-03T07:59:26;2.40;;;1.45;;
22287;SDS011;11312;51.464;6.968;2023-04-03T08:01:51;2.50;;;1.45;;
22287;SDS011;11312;51.464;6.968;2023-04-03T08:04:17;2.38;;;1.42;;
22287;SDS011;11312;51.464;6.968;2023-04-03T08:06:43;2.00;;;1.40;;
22287;SDS011;11312;51.464;6.968;2023-04-03T08:09:08;2.25;;;1.48;;
22287;SDS011;11312;51.464;6.968;2023-04-03T08:11:35;2.30;;;1.40;;
22287;SDS011;11312;51.464;6.968;2023-04-03T08:14:03;1.55;;;1.30;;
22287;SDS011;11312;51.464;6.968;2023-04-03T08:16:29;1.95;;;1.38;;
22287;SDS011;11312;51.464;6.968;2023-04-03T08:18:54;1.60;;;1.30;;
22287;SDS011;11312;51.464;6.968;2023-04-03T08:21:20;1.25;;;1.13;;
22287;SDS011;11312;51.464;6.968;2023-04-03T08:23:48;1.67;;;1.30;;
22287;SDS011;11312;51.464;6.968;2023-04-03T08:26:16;1.80;;;1.30;;
22287;SDS011;11312;51.464;6.968;2023-04-03T08:28:44;1.60;;;1.35;;
22287;SDS011;11312;51.464;6.968;2023-04-03T08:31:11;1.42;;;1.20;;
22287;SDS011;11312;51.464;6.968;2023-04-03T08:33:38;1.48;;;1.20;;
22287;SDS011;11312;51.464;6.968;2023-04-03T08:38:31;1.90;;;1.40;;
22287;SDS011;11312;51.464;6.968;2023-04-03T08:41:40;1.30;;;1.20;;
22287;SDS011;11312;51.464;6.968;2023-04-03T08:44:14;1.30;;;1.20;;
22287;SDS011;11312;51.464;6.968;2023-04-03T08:46:47;2.38;;;1.50;;
22287;SDS011;11312;51.464;6.968;2023-04-03T08:52:20;2.03;;;1.40;;
22287;SDS011;11312;51.464;6.968;2023-04-03T08:55:04;2.22;;;1.60;;
22287;SDS011;11312;51.464;6.968;2023-04-03T08:57:38;2.80;;;1.60;;
22287;SDS011;11312;51.464;6.968;2023-04-03T09:00:15;1.30;;;1.20;;
22287;SDS011;11312;51.464;6.968;2023-04-03T09:02:47;1.30;;;1.20;;
22287;SDS011;11312;51.464;6.968;2023-04-03T09:07:47;1.83;;;1.23;;
22287;SDS011;11312;51.464;6.968;2023-04-03T09:10:24;1.88;;;1.30;;
22287;SDS011;11312;51.464;6.968;2023-04-03T09:13:01;1.63;;;1.30;;
22287;SDS011;11312;51.464;6.968;2023-04-03T09:15:46;1.67;;;1.30;;
22287;SDS011;11312;51.464;6.968;2023-04-03T09:18:16;2.35;;;1.50;;
22287;SDS011;11312;51.464;6.968;2023-04-03T09:23:57;1.83;;;1.30;;
22287;SDS011;11312;51.464;6.968;2023-04-03T09:26:29;3.08;;;1.65;;
22287;SDS011;11312;51.464;6.968;2023-04-03T09:29:01;1.98;;;1.40;;
22287;SDS011;11312;51.464;6.968;2023-04-03T09:31:42;1.63;;;1.30;;
22287;SDS011;11312;51.464;6.968;2023-04-03T09:34:52;2.03;;;1.30;;
22287;SDS011;11312;51.464;6.968;2023-04-03T09:37:03;1.42;;;1.20;;
22287;SDS011;11312;51.464;6.968;2023-04-03T09:39:54;1.75;;;1.23;;
22287;SDS011;11312;51.464;6.968;2023-04-03T09:42:22;1.58;;;1.30;;
22287;SDS011;11312;51.464;6.968;2023-04-03T09:44:56;1.20;;;1.10;;
22287;SDS011;11312;51.464;6.968;2023-04-03T09:47:26;1.35;;;1.13;;
22287;SDS011;11312;51.464;6.968;2023-04-03T09:52:45;1.20;;;1.10;;
22287;SDS011;11312;51.464;6.968;2023-04-03T09:55:25;1.33;;;1.20;;
22287;SDS011;11312;51.464;6.968;2023-04-03T09:57:54;1.17;;;1.08;;
22287;SDS011;11312;51.464;6.968;2023-04-03T10:00:30;1.30;;;1.20;;
22287;SDS011;11312;51.464;6.968;2023-04-03T10:03:05;1.20;;;1.10;;
22287;SDS011;11312;51.464;6.968;2023-04-03T10:05:48;1.70;;;1.30;;
22287;SDS011;11312;51.464;6.968;2023-04-03T10:13:12;2.85;;;1.48;;
22287;SDS011;11312;51.464;6.968;2023-04-03T10:15:45;1.98;;;1.30;;
22287;SDS011;11312;51.464;6.968;2023-04-03T10:21:10;1.73;;;1.25;;
22287;SDS011;11312;51.464;6.968;2023-04-03T10:41:16;1.30;;;1.10;;
22287;SDS011;11312;51.464;6.968;2023-04-03T10:46:53;3.72;;;1.55;;
22287;SDS011;11312;51.464;6.968;2023-04-03T10:55:34;21.15;;;1.48;;
22287;SDS011;11312;51.464;6.968;2023-04-03T10:58:16;1.20;;;1.10;;
22287;SDS011;11312;51.464;6.968;2023-04-03T11:00:51;1.10;;;1.00;;
22287;SDS011;11312;51.464;6.968;2023-04-03T11:05:56;1.83;;;1.20;;
22287;SDS011;11312;51.464;6.968;2023-04-03T11:08:38;0.88;;;0.88;;
22287;SDS011;11312;51.464;6.968;2023-04-03T11:11:35;0.90;;;0.90;;
22287;SDS011;11312;51.464;6.968;2023-04-03T11:25:04;0.60;;;0.60;;
22287;SDS011;11312;51.464;6.968;2023-04-03T11:27:59;0.55;;;0.55;;
22287;SDS011;11312;51.464;6.968;2023-04-03T11:30:44;1.77;;;1.20;;
22287;SDS011;11312;51.464;6.968;2023-04-03T11:36:18;1.88;;;1.02;;
22287;SDS011;11312;51.464;6.968;2023-04-03T11:38:56;0.60;;;0.60;;
22287;SDS011;11312;51.464;6.968;2023-04-03T11:41:29;1.75;;;0.95;;
22287;SDS011;11312;51.464;6.968;2023-04-03T11:43:57;2.60;;;1.30;;
22287;SDS011;11312;51.464;6.968;2023-04-03T12:23:59;0.88;;;0.80;;
22287;SDS011;11312;51.464;6.968;2023-04-03T12:39:54;0.80;;;0.80;;
22287;SDS011;11312;51.464;6.968;2023-04-03T12:42:47;1.92;;;1.35;;
22287;SDS011;11312;51.464;6.968;2023-04-03T13:01:08;1.10;;;1.00;;
22287;SDS011;11312;51.464;6.968;2023-04-03T13:08:30;0.80;;;0.80;;
22287;SDS011;11312;51.464;6.968;2023-04-03T13:13:34;1.00;;;1.00;;
22287;SDS011;11312;51.464;6.968;2023-04-03T13:16:07;1.20;;;1.10;;
22287;SDS011;11312;51.464;6.968;2023-04-03T13:18:35;1.20;;;1.10;;
22287;SDS011;11312;51.464;6.968;2023-04-03T13:23:34;2.40;;;1.35;;
22287;SDS011;11312;51.464;6.968;2023-04-03T13:26:04;1.42;;;1.17;;
22287;SDS011;11312;51.464;6.968;2023-04-03T13:28:31;1.20;;;1.10;;
22287;SDS011;11312;51.464;6.968;2023-04-03T13:33:35;1.90;;;1.30;;
22287;SDS011;11312;51.464;6.968;2023-04-03T13:36:17;1.30;;;1.10;;
22287;SDS011;11312;51.464;6.968;2023-04-03T13:38:57;1.85;;;1.20;;
22287;SDS011;11312;51.464;6.968;2023-04-03T13:41:27;3.38;;;2.00;;
22287;SDS011;11312;51.464;6.968;2023-04-03T13:44:14;2.10;;;1.33;;
22287;SDS011;11312;51.464;6.968;2023-04-03T13:46:42;1.50;;;1.20;;
22287;SDS011;11312;51.464;6.968;2023-04-03T13:49:21;1.40;;;1.20;;
22287;SDS011;11312;51.464;6.968;2023-04-03T13:51:52;1.35;;;1.20;;
22287;SDS011;11312;51.464;6.968;2023-04-03T13:54:22;1.75;;;1.30;;
22287;SDS011;11312;51.464;6.968;2023-04-03T13:56:55;1.35;;;1.23;;
22287;SDS011;11312;51.464;6.968;2023-04-03T13:59:33;2.58;;;1.65;;
22287;SDS011;11312;51.464;6.968;2023-04-03T14:04:30;1.52;;;1.30;;
22287;SDS011;11312;51.464;6.968;2023-04-03T14:06:57;1.30;;;1.20;;
22287;SDS011;11312;51.464;6.968;2023-04-03T14:09:24;2.53;;;1.40;;
22287;SDS011;11312;51.464;6.968;2023-04-03T14:11:53;2.08;;;1.50;;
22287;SDS011;11312;51.464;6.968;2023-04-03T14:14:29;1.83;;;1.30;;
22287;SDS011;11312;51.464;6.968;2023-04-03T14:17:01;1.45;;;1.20;;
22287;SDS011;11312;51.464;6.968;2023-04-03T14:19:35;1.30;;;1.20;;
22287;SDS011;11312;51.464;6.968;2023-04-03T14:22:06;1.92;;;1.33;;
22287;SDS011;11312;51.464;6.968;2023-04-03T14:24:40;1.38;;;1.13;;
22287;SDS011;11312;51.464;6.968;2023-04-03T14:27:11;2.00;;;1.20;;
22287;SDS011;11312;51.464;6.968;2023-04-03T14:29:41;3.65;;;1.45;;
22287;SDS011;11312;51.464;6.968;2023-04-03T14:32:09;2.05;;;1.27;;
22287;SDS011;11312;51.464;6.968;2023-04-03T14:34:37;1.88;;;1.30;;
22287;SDS011;11312;51.464;6.968;2023-04-03T14:37:04;2.08;;;1.38;;
22287;SDS011;11312;51.464;6.968;2023-04-03T14:39:30;2.10;;;1.40;;
22287;SDS011;11312;51.464;6.968;2023-04-03T14:41:56;1.70;;;1.30;;
22287;SDS011;11312;51.464;6.968;2023-04-03T14:44:21;7.22;;;2.10;;
22287;SDS011;11312;51.464;6.968;2023-04-03T14:46:48;1.23;;;1.10;;
22287;SDS011;11312;51.464;6.968;2023-04-03T14:49:14;1.90;;;1.25;;
22287;SDS011;11312;51.464;6.968;2023-04-03T14:51:43;1.55;;;1.20;;
22287;SDS011;11312;51.464;6.968;2023-04-03T14:54:13;1.58;;;1.23;;
22287;SDS011;11312;51.464;6.968;2023-04-03T14:59:08;3.92;;;1.52;;
22287;SDS011;11312;51.464;6.968;2023-04-03T15:01:36;1.65;;;1.30;;
22287;SDS011;11312;51.464;6.968;2023-04-03T15:04:04;2.08;;;1.30;;
22287;SDS011;11312;51.464;6.968;2023-04-03T15:06:35;1.42;;;1.20;;
22287;SDS011;11312;51.464;6.968;2023-04-03T15:09:01;1.58;;;1.20;;
22287;SDS011;11312;51.464;6.968;2023-04-03T15:11:28;1.65;;;1.30;;
22287;SDS011;11312;51.464;6.968;2023-04-03T15:13:54;4.28;;;1.60;;
22287;SDS011;11312;51.464;6.968;2023-04-03T15:16:19;2.70;;;1.50;;
22287;SDS011;11312;51.464;6.968;2023-04-03T15:18:46;1.58;;;1.20;;
22287;SDS011;11312;51.464;6.968;2023-04-03T15:21:12;5.85;;;2.42;;
22287;SDS011;11312;51.464;6.968;2023-04-03T15:23:38;3.10;;;1.90;;
22287;SDS011;11312;51.464;6.968;2023-04-03T15:26:04;1.85;;;1.33;;
22287;SDS011;11312;51.464;6.968;2023-04-03T15:31:06;2.15;;;1.40;;
22287;SDS011;11312;51.464;6.968;2023-04-03T15:33:33;1.83;;;1.30;;
22287;SDS011;11312;51.464;6.968;2023-04-03T15:35:59;1.92;;;1.40;;
22287;SDS011;11312;51.464;6.968;2023-04-03T15:38:25;2.80;;;1.60;;
22287;SDS011;11312;51.464;6.968;2023-04-03T15:40:51;2.97;;;1.73;;
22287;SDS011;11312;51.464;6.968;2023-04-03T15:43:18;2.38;;;1.40;;
22287;SDS011;11312;51.464;6.968;2023-04-03T15:45:45;3.25;;;1.60;;
22287;SDS011;11312;51.464;6.968;2023-04-03T15:48:11;2.90;;;1.55;;
22287;SDS011;11312;51.464;6.968;2023-04-03T15:50:37;2.20;;;1.40;;
22287;SDS011;11312;51.464;6.968;2023-04-03T15:53:03;2.47;;;1.40;;
22287;SDS011;11312;51.464;6.968;2023-04-03T15:55:30;2.80;;;1.50;;
22287;SDS011;11312;51.464;6.968;2023-04-03T15:57:57;3.15;;;1.60;;
22287;SDS011;11312;51.464;6.968;2023-04-03T16:00:24;2.67;;;1.52;;
22287;SDS011;11312;51.464;6.968;2023-04-03T16:02:52;2.00;;;1.30;;
22287;SDS011;11312;51.464;6.968;2023-04-03T16:05:20;2.38;;;1.40;;
22287;SDS011;11312;51.464;6.968;2023-04-03T16:07:46;2.63;;;1.60;;
22287;SDS011;11312;51.464;6.968;2023-04-03T16:10:13;2.30;;;1.40;;
22287;SDS011;11312;51.464;6.968;2023-04-03T16:12:41;4.30;;;2.00;;
22287;SDS011;11312;51.464;6.968;2023-04-03T16:15:07;3.95;;;2.17;;
22287;SDS011;11312;51.464;6.968;2023-04-03T16:17:33;3.92;;;1.85;;
22287;SDS011;11312;51.464;6.968;2023-04-03T16:20:00;3.03;;;1.70;;
22287;SDS011;11312;51.464;6.968;2023-04-03T16:22:26;2.60;;;1.50;;
22287;SDS011;11312;51.464;6.968;2023-04-03T16:24:53;3.58;;;1.90;;
22287;SDS011;11312;51.464;6.968;2023-04-03T16:27:19;2.75;;;1.67;;
22287;SDS011;11312;51.464;6.968;2023-04-03T16:29:46;3.25;;;1.60;;
22287;SDS011;11312;51.464;6.968;2023-04-03T16:32:12;2.45;;;1.50;;
22287;SDS011;11312;51.464;6.968;2023-04-03T16:34:38;3.03;;;1.63;;
22287;SDS011;11312;51.464;6.968;2023-04-03T16:37:05;2.55;;;1.52;;
22287;SDS011;11312;51.464;6.968;2023-04-03T16:39:33;2.70;;;1.55;;
22287;SDS011;11312;51.464;6.968;2023-04-03T16:42:00;2.47;;;1.50;;
22287;SDS011;11312;51.464;6.968;2023-04-03T16:44:26;7.97;;;3.15;;
22287;SDS011;11312;51.464;6.968;2023-04-03T16:46:51;3.00;;;1.63;;
22287;SDS011;11312;51.464;6.968;2023-04-03T16:49:17;4.75;;;2.38;;
22287;SDS011;11312;51.464;6.968;2023-04-03T16:51:43;3.35;;;1.80;;
22287;SDS011;11312;51.464;6.968;2023-04-03T16:54:08;2.45;;;1.50;;
22287;SDS011;11312;51.464;6.968;2023-04-03T16:56:36;3.65;;;1.77;;
22287;SDS011;11312;51.464;6.968;2023-04-03T16:59:02;2.45;;;1.50;;
22287;SDS011;11312;51.464;6.968;2023-04-03T17:01:27;3.58;;;1.70;;
22287;SDS011;11312;51.464;6.968;2023-04-03T17:03:54;3.08;;;1.60;;
22287;SDS011;11312;51.464;6.968;2023-04-03T17:06:20;3.28;;;1.60;;
22287;SDS011;11312;51.464;6.968;2023-04-03T17:08:48;4.65;;;1.67;;
22287;SDS011;11312;51.464;6.968;2023-04-03T17:11:16;3.55;;;1.70;;
22287;SDS011;11312;51.464;6.968;2023-04-03T17:13:43;2.20;;;1.40;;
22287;SDS011;11312;51.464;6.968;2023-04-03T17:16:10;4.00;;;1.95;;
22287;SDS011;11312;51.464;6.968;2023-04-03T17:18:38;2.92;;;1.58;;
22287;SDS011;11312;51.464;6.968;2023-04-03T17:21:04;3.20;;;1.60;;
22287;SDS011;11312;51.464;6.968;2023-04-03T17:23:30;3.40;;;1.70;;
22287;SDS011;11312;51.464;6.968;2023-04-03T17:25:58;3.25;;;1.65;;
22287;SDS011;11312;51.464;6.968;2023-04-03T17:28:24;3.67;;;1.80;;
22287;SDS011;11312;51.464;6.968;2023-04-03T17:30:56;3.30;;;1.75;;
22287;SDS011;11312;51.464;6.968;2023-04-03T17:33:23;3.55;;;1.88;;